Liberty Eagle — WHIA — position and weather

sailwx.info

Track history (hours):
 
Tides and Currents Weather Stations Pressure Air Temp Water Temp Dewpoint Dewpoint Depression Visibility Wind Speed Wind Dir Waves Ship Positions

Liberty Eagle

Owner: Liberty Shipping Group, LLC, Lake Success, NY. More information available from US FCC via Universal Licensing System and Coast Guard Vessel Documentation Center.

Last reported at 2017-Dec-04 09:08 UTC. Time now 2017-Dec-13 03:40 UTC.
Position N 31°55' E 031°41'.
Warning: this ship's position is 8 days out of date.

Type: Cargo ship. MMSI: 369344000.

Date/timePositionNaut miles runAvg speedWind from/ knotsBaromVisibWave heightAir tempDewpointWater temp
2017-Dec-04 09:08N 31°55' E 031°41'212.9
2017-Dec-04 09:01N 31°55' E 031°39'3812.9
2017-Dec-04 06:05N 32°07' E 030°57'113.1
2017-Dec-04 06:01N 32°07' E 030°56'813.3
2017-Dec-04 05:24N 32°10' E 030°46'15512.7
2017-Dec-03 17:11N 32°56' E 027°50'313.0
2017-Dec-03 16:59N 32°56' E 027°47'66713.1
2017-Dec-01 14:13N 35°47' E 014°46'313.2
2017-Dec-01 14:00N 35°48' E 014°42'6 1.9
2017-Dec-01 10:55N 35°49' E 014°35'0 0.1
2017-Dec-01 10:28N 35°49' E 014°35'0 0.0
2017-Dec-01 06:00N 35°49' E 014°35'0 0.0
2017-Dec-01 04:32N 35°49' E 014°35'0 0.1
2017-Dec-01 04:29N 35°49' E 014°35'0 0.0
2017-Dec-01 02:30N 35°49' E 014°35'0 0.0
2017-Dec-01 01:50N 35°49' E 014°35'0 0.0
2017-Dec-01 01:17N 35°49' E 014°35'3 2.7
2017-Dec-01 00:02N 35°52' E 014°37'011.2
2017-Dec-01 00:00N 35°53' E 014°37'5 9.0
2017-Nov-30 23:29N 35°57' E 014°37'1 2.1
2017-Nov-30 23:00N 35°58' E 014°36'2 3.2
2017-Nov-30 22:29N 35°58' E 014°34'510.5
2017-Nov-30 22:00N 36°01' E 014°29'714.5
2017-Nov-30 21:30N 36°05' E 014°22'714.6
2017-Nov-30 21:00N 36°09' E 014°14'714.7
2017-Nov-30 20:30N 36°12' E 014°06'714.3
2017-Nov-30 20:00N 36°15' E 013°58'714.2
2017-Nov-30 19:30N 36°18' E 013°50'713.9
2017-Nov-30 19:00N 36°21' E 013°42'  
2017-Nov-27 13:55N 35°54' W 009°24'  
2017-Nov-25 05:46N 35°54' W 023°54'311.2
2017-Nov-25 05:30N 35°54' W 023°58'611.1
2017-Nov-25 04:57N 35°54' W 024°06'811.5
2017-Nov-25 04:14N 35°54' W 024°16'311.7
2017-Nov-25 03:58N 35°54' W 024°20'511.5
2017-Nov-25 03:30N 35°54' W 024°26'611.1
2017-Nov-25 03:01N 35°54' W 024°33'611.5
2017-Nov-25 02:31N 35°54' W 024°40'611.6
2017-Nov-25 02:00N 35°54' W 024°47'611.3
2017-Nov-25 01:31N 35°54' W 024°54'611.3
2017-Nov-25 01:00N 35°54' W 025°01'611.8
2017-Nov-25 00:30N 35°54' W 025°09'611.7
2017-Nov-25 00:01N 35°54' W 025°16'611.9
2017-Nov-24 23:30N 35°53' W 025°23'611.8
2017-Nov-24 23:00N 35°53' W 025°30'612.3
2017-Nov-24 22:30N 35°52' W 025°38'712.2
2017-Nov-24 21:57N 35°51' W 025°46'512.0
2017-Nov-24 21:30N 35°50' W 025°53'  
Track history (hours):
 
Tides and Currents Weather Stations Pressure Air Temp Water Temp Dewpoint Dewpoint Depression Visibility Wind Speed Wind Dir Waves Ship Positions

Liberty Eagle

Owner: Liberty Shipping Group, LLC, Lake Success, NY. More information available from US FCC via Universal Licensing System and Coast Guard Vessel Documentation Center.

Last reported at 2017-Dec-04 09:08 UTC. Time now 2017-Dec-13 03:40 UTC.
Position N 31°55' E 031°41'.
Warning: this ship's position is 8 days out of date.

Type: Cargo ship. MMSI: 369344000.

Date/timePositionNaut miles runAvg speedWind from/ knotsBaromVisibWave heightAir tempDewpointWater temp
2017-Dec-04 09:08N 31°55' E 031°41'212.9
2017-Dec-04 09:01N 31°55' E 031°39'3812.9
2017-Dec-04 06:05N 32°07' E 030°57'113.1
2017-Dec-04 06:01N 32°07' E 030°56'813.3
2017-Dec-04 05:24N 32°10' E 030°46'15512.7
2017-Dec-03 17:11N 32°56' E 027°50'313.0
2017-Dec-03 16:59N 32°56' E 027°47'66713.1
2017-Dec-01 14:13N 35°47' E 014°46'313.2
2017-Dec-01 14:00N 35°48' E 014°42'6 1.9
2017-Dec-01 10:55N 35°49' E 014°35'0 0.1
2017-Dec-01 10:28N 35°49' E 014°35'0 0.0
2017-Dec-01 06:00N 35°49' E 014°35'0 0.0
2017-Dec-01 04:32N 35°49' E 014°35'0 0.1
2017-Dec-01 04:29N 35°49' E 014°35'0 0.0
2017-Dec-01 02:30N 35°49' E 014°35'0 0.0
2017-Dec-01 01:50N 35°49' E 014°35'0 0.0
2017-Dec-01 01:17N 35°49' E 014°35'3 2.7
2017-Dec-01 00:02N 35°52' E 014°37'011.2
2017-Dec-01 00:00N 35°53' E 014°37'5 9.0
2017-Nov-30 23:29N 35°57' E 014°37'1 2.1
2017-Nov-30 23:00N 35°58' E 014°36'2 3.2
2017-Nov-30 22:29N 35°58' E 014°34'510.5
2017-Nov-30 22:00N 36°01' E 014°29'714.5
2017-Nov-30 21:30N 36°05' E 014°22'714.6
2017-Nov-30 21:00N 36°09' E 014°14'714.7
2017-Nov-30 20:30N 36°12' E 014°06'714.3
2017-Nov-30 20:00N 36°15' E 013°58'714.2
2017-Nov-30 19:30N 36°18' E 013°50'713.9
2017-Nov-30 19:00N 36°21' E 013°42'  
2017-Nov-27 13:55N 35°54' W 009°24'  
2017-Nov-25 05:46N 35°54' W 023°54'311.2
2017-Nov-25 05:30N 35°54' W 023°58'611.1
2017-Nov-25 04:57N 35°54' W 024°06'811.5
2017-Nov-25 04:14N 35°54' W 024°16'311.7
2017-Nov-25 03:58N 35°54' W 024°20'511.5
2017-Nov-25 03:30N 35°54' W 024°26'611.1
2017-Nov-25 03:01N 35°54' W 024°33'611.5
2017-Nov-25 02:31N 35°54' W 024°40'611.6
2017-Nov-25 02:00N 35°54' W 024°47'611.3
2017-Nov-25 01:31N 35°54' W 024°54'611.3
2017-Nov-25 01:00N 35°54' W 025°01'611.8
2017-Nov-25 00:30N 35°54' W 025°09'611.7
2017-Nov-25 00:01N 35°54' W 025°16'611.9
2017-Nov-24 23:30N 35°53' W 025°23'611.8
2017-Nov-24 23:00N 35°53' W 025°30'612.3
2017-Nov-24 22:30N 35°52' W 025°38'712.2
2017-Nov-24 21:57N 35°51' W 025°46'512.0
2017-Nov-24 21:30N 35°50' W 025°53'  

Dump ship's entire track history